sensor_id;sensor_type;location;lat;lon;timestamp;temperature;humidity
46932;DHT22;32670;51.464;11.964;2023-11-21T00:01:31;22.70;59.30
46932;DHT22;32670;51.464;11.964;2023-11-21T00:03:58;22.70;59.20
46932;DHT22;32670;51.464;11.964;2023-11-21T00:06:23;22.70;59.30
46932;DHT22;32670;51.464;11.964;2023-11-21T00:08:48;22.80;59.50
46932;DHT22;32670;51.464;11.964;2023-11-21T00:11:14;22.80;59.60
46932;DHT22;32670;51.464;11.964;2023-11-21T00:13:39;22.80;59.40
46932;DHT22;32670;51.464;11.964;2023-11-21T00:16:05;22.80;59.50
46932;DHT22;32670;51.464;11.964;2023-11-21T00:18:31;22.80;59.70
46932;DHT22;32670;51.464;11.964;2023-11-21T00:20:56;22.80;59.90
46932;DHT22;32670;51.464;11.964;2023-11-21T00:23:24;22.80;59.80
46932;DHT22;32670;51.464;11.964;2023-11-21T00:25:49;22.80;59.90
46932;DHT22;32670;51.464;11.964;2023-11-21T00:28:15;22.80;60.00
46932;DHT22;32670;51.464;11.964;2023-11-21T00:30:40;22.80;60.00
46932;DHT22;32670;51.464;11.964;2023-11-21T00:33:06;22.80;60.10
46932;DHT22;32670;51.464;11.964;2023-11-21T00:35:31;22.80;60.20
46932;DHT22;32670;51.464;11.964;2023-11-21T00:37:57;22.90;60.30
46932;DHT22;32670;51.464;11.964;2023-11-21T00:40:23;22.90;60.40
46932;DHT22;32670;51.464;11.964;2023-11-21T00:42:50;22.80;60.50
46932;DHT22;32670;51.464;11.964;2023-11-21T00:45:15;22.80;60.50
46932;DHT22;32670;51.464;11.964;2023-11-21T00:47:41;22.90;60.80
46932;DHT22;32670;51.464;11.964;2023-11-21T00:50:08;22.80;60.50
46932;DHT22;32670;51.464;11.964;2023-11-21T00:52:33;22.80;60.80
46932;DHT22;32670;51.464;11.964;2023-11-21T00:54:59;22.80;60.90
46932;DHT22;32670;51.464;11.964;2023-11-21T00:57:26;22.80;60.90
46932;DHT22;32670;51.464;11.964;2023-11-21T00:59:51;22.90;61.10
46932;DHT22;32670;51.464;11.964;2023-11-21T01:02:17;22.90;61.20
46932;DHT22;32670;51.464;11.964;2023-11-21T01:04:42;22.90;61.00
46932;DHT22;32670;51.464;11.964;2023-11-21T01:07:09;22.90;61.30
46932;DHT22;32670;51.464;11.964;2023-11-21T01:09:34;22.90;61.30
46932;DHT22;32670;51.464;11.964;2023-11-21T01:12:00;22.90;61.20
46932;DHT22;32670;51.464;11.964;2023-11-21T01:14:26;23.00;61.30
46932;DHT22;32670;51.464;11.964;2023-11-21T01:16:54;22.90;61.30
46932;DHT22;32670;51.464;11.964;2023-11-21T01:19:20;23.00;61.40
46932;DHT22;32670;51.464;11.964;2023-11-21T01:21:45;23.00;61.40
46932;DHT22;32670;51.464;11.964;2023-11-21T01:24:11;23.00;61.30
46932;DHT22;32670;51.464;11.964;2023-11-21T01:26:36;23.00;61.50
46932;DHT22;32670;51.464;11.964;2023-11-21T01:29:02;23.00;61.30
46932;DHT22;32670;51.464;11.964;2023-11-21T01:31:27;23.00;61.20
46932;DHT22;32670;51.464;11.964;2023-11-21T01:33:55;23.00;61.30
46932;DHT22;32670;51.464;11.964;2023-11-21T01:36:21;23.00;61.30
46932;DHT22;32670;51.464;11.964;2023-11-21T01:38:46;23.00;61.20
46932;DHT22;32670;51.464;11.964;2023-11-21T01:41:14;23.00;61.30
46932;DHT22;32670;51.464;11.964;2023-11-21T01:43:41;23.00;61.30
46932;DHT22;32670;51.464;11.964;2023-11-21T01:46:06;23.00;61.30
46932;DHT22;32670;51.464;11.964;2023-11-21T01:48:33;23.00;61.40
46932;DHT22;32670;51.464;11.964;2023-11-21T01:51:00;23.00;61.50
46932;DHT22;32670;51.464;11.964;2023-11-21T01:53:25;23.00;61.40
46932;DHT22;32670;51.464;11.964;2023-11-21T01:55:51;23.00;61.50
46932;DHT22;32670;51.464;11.964;2023-11-21T01:58:17;23.00;61.70
46932;DHT22;32670;51.464;11.964;2023-11-21T02:00:43;23.00;62.00
46932;DHT22;32670;51.464;11.964;2023-11-21T02:03:09;23.00;62.00
46932;DHT22;32670;51.464;11.964;2023-11-21T02:05:35;23.00;62.00
46932;DHT22;32670;51.464;11.964;2023-11-21T02:08:01;23.00;62.00
46932;DHT22;32670;51.464;11.964;2023-11-21T02:10:28;23.00;62.10
46932;DHT22;32670;51.464;11.964;2023-11-21T02:12:54;23.00;62.00
46932;DHT22;32670;51.464;11.964;2023-11-21T02:15:21;23.00;62.10
46932;DHT22;32670;51.464;11.964;2023-11-21T02:17:49;23.00;62.00
46932;DHT22;32670;51.464;11.964;2023-11-21T02:20:22;23.00;62.00
46932;DHT22;32670;51.464;11.964;2023-11-21T02:22:50;23.00;62.10
46932;DHT22;32670;51.464;11.964;2023-11-21T02:25:21;23.00;61.90
46932;DHT22;32670;51.464;11.964;2023-11-21T02:27:46;23.00;62.00
46932;DHT22;32670;51.464;11.964;2023-11-21T02:30:14;23.00;62.10
46932;DHT22;32670;51.464;11.964;2023-11-21T02:32:39;23.00;62.10
46932;DHT22;32670;51.464;11.964;2023-11-21T02:35:08;23.00;62.10
46932;DHT22;32670;51.464;11.964;2023-11-21T02:37:34;23.00;62.30
46932;DHT22;32670;51.464;11.964;2023-11-21T02:40:03;23.00;62.20
46932;DHT22;32670;51.464;11.964;2023-11-21T02:42:30;23.00;62.50
46932;DHT22;32670;51.464;11.964;2023-11-21T02:44:56;23.00;62.20
46932;DHT22;32670;51.464;11.964;2023-11-21T02:47:22;23.00;62.00
46932;DHT22;32670;51.464;11.964;2023-11-21T02:49:48;23.10;61.90
46932;DHT22;32670;51.464;11.964;2023-11-21T02:52:14;23.00;61.90
46932;DHT22;32670;51.464;11.964;2023-11-21T02:54:39;23.00;62.00
46932;DHT22;32670;51.464;11.964;2023-11-21T02:57:05;23.10;62.10
46932;DHT22;32670;51.464;11.964;2023-11-21T02:59:31;23.00;62.30
46932;DHT22;32670;51.464;11.964;2023-11-21T03:01:56;23.10;62.40
46932;DHT22;32670;51.464;11.964;2023-11-21T03:04:22;23.10;62.40
46932;DHT22;32670;51.464;11.964;2023-11-21T03:06:47;23.00;62.40
46932;DHT22;32670;51.464;11.964;2023-11-21T03:09:13;23.10;62.50
46932;DHT22;32670;51.464;11.964;2023-11-21T03:11:38;23.00;62.70
46932;DHT22;32670;51.464;11.964;2023-11-21T03:14:04;23.10;62.60
46932;DHT22;32670;51.464;11.964;2023-11-21T03:16:31;23.10;62.60
46932;DHT22;32670;51.464;11.964;2023-11-21T03:18:57;23.00;62.60
46932;DHT22;32670;51.464;11.964;2023-11-21T03:21:22;23.10;62.70
46932;DHT22;32670;51.464;11.964;2023-11-21T03:23:48;23.10;62.70
46932;DHT22;32670;51.464;11.964;2023-11-21T03:26:13;23.10;62.90
46932;DHT22;32670;51.464;11.964;2023-11-21T03:28:39;23.10;63.20
46932;DHT22;32670;51.464;11.964;2023-11-21T03:31:05;23.10;63.10
46932;DHT22;32670;51.464;11.964;2023-11-21T03:33:32;23.10;63.00
46932;DHT22;32670;51.464;11.964;2023-11-21T03:35:57;23.10;63.10
46932;DHT22;32670;51.464;11.964;2023-11-21T03:38:23;23.10;63.10
46932;DHT22;32670;51.464;11.964;2023-11-21T03:40:48;23.10;63.30
46932;DHT22;32670;51.464;11.964;2023-11-21T03:43:14;23.10;63.10
46932;DHT22;32670;51.464;11.964;2023-11-21T03:45:40;23.10;63.20
46932;DHT22;32670;51.464;11.964;2023-11-21T03:48:06;23.10;63.50
46932;DHT22;32670;51.464;11.964;2023-11-21T03:50:32;23.10;63.40
46932;DHT22;32670;51.464;11.964;2023-11-21T03:52:57;23.10;63.60
46932;DHT22;32670;51.464;11.964;2023-11-21T03:55:23;23.10;63.50
46932;DHT22;32670;51.464;11.964;2023-11-21T03:57:50;23.20;63.60
46932;DHT22;32670;51.464;11.964;2023-11-21T04:00:17;23.10;63.70
46932;DHT22;32670;51.464;11.964;2023-11-21T04:02:42;23.20;63.80
46932;DHT22;32670;51.464;11.964;2023-11-21T04:05:08;23.20;63.60
46932;DHT22;32670;51.464;11.964;2023-11-21T04:07:34;23.10;63.60
46932;DHT22;32670;51.464;11.964;2023-11-21T04:10:00;23.10;63.60
46932;DHT22;32670;51.464;11.964;2023-11-21T04:12:26;23.20;63.60
46932;DHT22;32670;51.464;11.964;2023-11-21T04:14:51;23.20;63.60
46932;DHT22;32670;51.464;11.964;2023-11-21T04:17:19;23.20;63.60
46932;DHT22;32670;51.464;11.964;2023-11-21T04:19:45;23.20;63.60
46932;DHT22;32670;51.464;11.964;2023-11-21T04:22:11;23.20;63.80
46932;DHT22;32670;51.464;11.964;2023-11-21T04:24:37;23.20;63.70
46932;DHT22;32670;51.464;11.964;2023-11-21T04:27:02;23.20;63.70
46932;DHT22;32670;51.464;11.964;2023-11-21T04:29:28;23.20;63.70
46932;DHT22;32670;51.464;11.964;2023-11-21T04:31:54;23.20;63.60
46932;DHT22;32670;51.464;11.964;2023-11-21T04:34:19;23.20;63.60
46932;DHT22;32670;51.464;11.964;2023-11-21T04:36:45;23.10;63.60
46932;DHT22;32670;51.464;11.964;2023-11-21T04:39:10;23.20;63.60
46932;DHT22;32670;51.464;11.964;2023-11-21T04:41:36;23.10;63.60
46932;DHT22;32670;51.464;11.964;2023-11-21T04:44:07;23.20;63.50
46932;DHT22;32670;51.464;11.964;2023-11-21T04:46:32;23.20;63.60
46932;DHT22;32670;51.464;11.964;2023-11-21T04:48:58;23.20;63.60
46932;DHT22;32670;51.464;11.964;2023-11-21T04:51:24;23.20;63.70
46932;DHT22;32670;51.464;11.964;2023-11-21T04:53:49;23.10;63.70
46932;DHT22;32670;51.464;11.964;2023-11-21T04:56:15;23.10;64.40
46932;DHT22;32670;51.464;11.964;2023-11-21T04:58:41;23.10;63.80
46932;DHT22;32670;51.464;11.964;2023-11-21T05:01:07;23.10;63.80
46932;DHT22;32670;51.464;11.964;2023-11-21T05:03:33;23.10;64.00
46932;DHT22;32670;51.464;11.964;2023-11-21T05:05:59;23.10;63.90
46932;DHT22;32670;51.464;11.964;2023-11-21T05:08:25;23.10;64.00
46932;DHT22;32670;51.464;11.964;2023-11-21T05:10:52;23.10;63.90
46932;DHT22;32670;51.464;11.964;2023-11-21T05:13:17;23.20;64.10
46932;DHT22;32670;51.464;11.964;2023-11-21T05:15:44;23.10;64.40
46932;DHT22;32670;51.464;11.964;2023-11-21T05:18:09;23.10;64.20
46932;DHT22;32670;51.464;11.964;2023-11-21T05:20:35;23.10;64.30
46932;DHT22;32670;51.464;11.964;2023-11-21T05:23:01;23.10;64.50
46932;DHT22;32670;51.464;11.964;2023-11-21T05:25:27;23.20;64.50
46932;DHT22;32670;51.464;11.964;2023-11-21T05:27:52;23.10;64.40
46932;DHT22;32670;51.464;11.964;2023-11-21T05:30:20;23.20;64.70
46932;DHT22;32670;51.464;11.964;2023-11-21T05:32:46;23.20;64.70
46932;DHT22;32670;51.464;11.964;2023-11-21T05:35:12;23.10;64.60
46932;DHT22;32670;51.464;11.964;2023-11-21T05:37:41;23.20;64.80
46932;DHT22;32670;51.464;11.964;2023-11-21T05:40:08;23.20;64.70
46932;DHT22;32670;51.464;11.964;2023-11-21T05:42:34;23.10;64.60
46932;DHT22;32670;51.464;11.964;2023-11-21T05:45:00;23.20;64.70
46932;DHT22;32670;51.464;11.964;2023-11-21T05:47:37;23.20;64.70
46932;DHT22;32670;51.464;11.964;2023-11-21T05:50:04;23.20;64.70
46932;DHT22;32670;51.464;11.964;2023-11-21T05:52:31;23.20;64.80
46932;DHT22;32670;51.464;11.964;2023-11-21T05:54:58;23.10;64.70
46932;DHT22;32670;51.464;11.964;2023-11-21T05:57:23;23.20;64.60
46932;DHT22;32670;51.464;11.964;2023-11-21T05:59:48;23.20;64.60
46932;DHT22;32670;51.464;11.964;2023-11-21T06:02:14;23.20;64.20
46932;DHT22;32670;51.464;11.964;2023-11-21T06:04:40;23.10;64.40
46932;DHT22;32670;51.464;11.964;2023-11-21T06:07:05;23.20;64.50
46932;DHT22;32670;51.464;11.964;2023-11-21T06:09:31;23.20;64.40
46932;DHT22;32670;51.464;11.964;2023-11-21T06:11:56;23.20;64.40
46932;DHT22;32670;51.464;11.964;2023-11-21T06:14:21;23.20;64.50
46932;DHT22;32670;51.464;11.964;2023-11-21T06:16:47;23.20;64.50
46932;DHT22;32670;51.464;11.964;2023-11-21T06:19:12;23.20;64.60
46932;DHT22;32670;51.464;11.964;2023-11-21T06:21:38;23.10;64.40
46932;DHT22;32670;51.464;11.964;2023-11-21T06:24:04;23.10;64.40
46932;DHT22;32670;51.464;11.964;2023-11-21T06:26:29;23.20;64.60
46932;DHT22;32670;51.464;11.964;2023-11-21T06:28:57;23.20;64.60
46932;DHT22;32670;51.464;11.964;2023-11-21T06:31:22;23.20;64.70
46932;DHT22;32670;51.464;11.964;2023-11-21T06:33:48;23.20;64.60
46932;DHT22;32670;51.464;11.964;2023-11-21T06:36:15;23.20;64.80
46932;DHT22;32670;51.464;11.964;2023-11-21T06:38:40;23.20;64.60
46932;DHT22;32670;51.464;11.964;2023-11-21T06:41:06;23.20;65.10
46932;DHT22;32670;51.464;11.964;2023-11-21T06:43:31;23.20;64.20
46932;DHT22;32670;51.464;11.964;2023-11-21T06:45:57;23.20;63.90
46932;DHT22;32670;51.464;11.964;2023-11-21T06:48:22;23.20;63.80
46932;DHT22;32670;51.464;11.964;2023-11-21T06:50:48;23.20;63.40
46932;DHT22;32670;51.464;11.964;2023-11-21T06:53:14;23.20;55.80
46932;DHT22;32670;51.464;11.964;2023-11-21T06:55:39;22.80;49.20
46932;DHT22;32670;51.464;11.964;2023-11-21T06:58:05;22.30;47.70
46932;DHT22;32670;51.464;11.964;2023-11-21T07:00:30;21.90;47.40
46932;DHT22;32670;51.464;11.964;2023-11-21T07:02:56;21.60;47.40
46932;DHT22;32670;51.464;11.964;2023-11-21T07:05:22;21.30;47.20
46932;DHT22;32670;51.464;11.964;2023-11-21T07:07:48;21.10;47.50
46932;DHT22;32670;51.464;11.964;2023-11-21T07:10:14;20.90;48.20
46932;DHT22;32670;51.464;11.964;2023-11-21T07:12:40;20.70;48.10
46932;DHT22;32670;51.464;11.964;2023-11-21T07:15:06;20.60;48.20
46932;DHT22;32670;51.464;11.964;2023-11-21T07:17:35;20.50;48.30
46932;DHT22;32670;51.464;11.964;2023-11-21T07:20:01;20.50;48.80
46932;DHT22;32670;51.464;11.964;2023-11-21T07:22:27;20.30;48.90
46932;DHT22;32670;51.464;11.964;2023-11-21T07:24:52;20.30;48.90
46932;DHT22;32670;51.464;11.964;2023-11-21T07:27:18;20.20;49.40
46932;DHT22;32670;51.464;11.964;2023-11-21T07:29:44;20.20;49.60
46932;DHT22;32670;51.464;11.964;2023-11-21T07:32:09;20.20;49.70
46932;DHT22;32670;51.464;11.964;2023-11-21T07:34:36;20.10;49.80
46932;DHT22;32670;51.464;11.964;2023-11-21T07:37:02;20.20;50.20
46932;DHT22;32670;51.464;11.964;2023-11-21T07:39:28;20.10;50.60
46932;DHT22;32670;51.464;11.964;2023-11-21T07:41:53;20.10;50.40
46932;DHT22;32670;51.464;11.964;2023-11-21T07:44:19;20.10;50.50
46932;DHT22;32670;51.464;11.964;2023-11-21T07:46:45;20.10;50.20
46932;DHT22;32670;51.464;11.964;2023-11-21T07:49:11;20.10;50.30
46932;DHT22;32670;51.464;11.964;2023-11-21T07:51:37;20.10;50.10
46932;DHT22;32670;51.464;11.964;2023-11-21T07:54:03;20.00;50.30
46932;DHT22;32670;51.464;11.964;2023-11-21T07:56:30;20.00;50.70
46932;DHT22;32670;51.464;11.964;2023-11-21T07:58:55;20.10;51.60
46932;DHT22;32670;51.464;11.964;2023-11-21T08:01:21;20.30;51.90
46932;DHT22;32670;51.464;11.964;2023-11-21T08:03:46;20.40;52.20
46932;DHT22;32670;51.464;11.964;2023-11-21T08:06:16;20.70;52.00
46932;DHT22;32670;51.464;11.964;2023-11-21T08:08:42;20.80;51.90
46932;DHT22;32670;51.464;11.964;2023-11-21T08:11:08;20.90;51.90
46932;DHT22;32670;51.464;11.964;2023-11-21T08:13:35;21.00;52.00
46932;DHT22;32670;51.464;11.964;2023-11-21T08:16:01;21.10;52.00
46932;DHT22;32670;51.464;11.964;2023-11-21T08:18:30;21.10;52.00
46932;DHT22;32670;51.464;11.964;2023-11-21T08:20:56;21.20;52.00
46932;DHT22;32670;51.464;11.964;2023-11-21T08:23:22;21.30;52.10
46932;DHT22;32670;51.464;11.964;2023-11-21T08:25:52;21.30;52.10
46932;DHT22;32670;51.464;11.964;2023-11-21T08:28:18;21.30;52.20
46932;DHT22;32670;51.464;11.964;2023-11-21T08:30:44;21.40;52.70
46932;DHT22;32670;51.464;11.964;2023-11-21T08:33:09;21.40;52.30
46932;DHT22;32670;51.464;11.964;2023-11-21T08:35:36;21.40;52.20
46932;DHT22;32670;51.464;11.964;2023-11-21T08:38:02;21.50;52.50
46932;DHT22;32670;51.464;11.964;2023-11-21T08:40:28;21.50;52.60
46932;DHT22;32670;51.464;11.964;2023-11-21T08:42:54;21.50;52.80
46932;DHT22;32670;51.464;11.964;2023-11-21T08:45:21;21.50;52.70
46932;DHT22;32670;51.464;11.964;2023-11-21T08:47:47;21.60;52.80
46932;DHT22;32670;51.464;11.964;2023-11-21T08:50:12;21.50;52.70
46932;DHT22;32670;51.464;11.964;2023-11-21T08:52:39;21.50;52.90
46932;DHT22;32670;51.464;11.964;2023-11-21T08:55:06;21.60;52.90
46932;DHT22;32670;51.464;11.964;2023-11-21T08:57:42;21.60;53.20
46932;DHT22;32670;51.464;11.964;2023-11-21T09:00:10;21.60;53.00
46932;DHT22;32670;51.464;11.964;2023-11-21T09:02:38;21.60;53.10
46932;DHT22;32670;51.464;11.964;2023-11-21T09:05:05;21.70;53.90
46932;DHT22;32670;51.464;11.964;2023-11-21T09:07:31;21.70;53.60
46932;DHT22;32670;51.464;11.964;2023-11-21T09:09:56;21.70;53.50
46932;DHT22;32670;51.464;11.964;2023-11-21T09:12:22;21.70;53.40
46932;DHT22;32670;51.464;11.964;2023-11-21T09:14:47;21.70;53.40
46932;DHT22;32670;51.464;11.964;2023-11-21T09:17:13;21.70;53.40
46932;DHT22;32670;51.464;11.964;2023-11-21T09:19:40;21.70;53.40
46932;DHT22;32670;51.464;11.964;2023-11-21T09:22:06;21.80;53.50
46932;DHT22;32670;51.464;11.964;2023-11-21T09:24:32;21.70;53.50
46932;DHT22;32670;51.464;11.964;2023-11-21T09:26:58;21.70;53.50
46932;DHT22;32670;51.464;11.964;2023-11-21T09:29:25;21.70;53.50
46932;DHT22;32670;51.464;11.964;2023-11-21T09:31:51;21.80;53.50
46932;DHT22;32670;51.464;11.964;2023-11-21T09:34:17;21.80;53.60
46932;DHT22;32670;51.464;11.964;2023-11-21T09:36:45;21.70;53.50
46932;DHT22;32670;51.464;11.964;2023-11-21T09:39:11;21.80;53.50
46932;DHT22;32670;51.464;11.964;2023-11-21T09:41:54;21.80;53.60
46932;DHT22;32670;51.464;11.964;2023-11-21T09:44:34;21.80;53.60
46932;DHT22;32670;51.464;11.964;2023-11-21T09:47:00;21.80;54.20
46932;DHT22;32670;51.464;11.964;2023-11-21T09:49:28;21.80;53.60
46932;DHT22;32670;51.464;11.964;2023-11-21T09:51:55;21.80;53.60
46932;DHT22;32670;51.464;11.964;2023-11-21T09:54:24;21.80;53.60
46932;DHT22;32670;51.464;11.964;2023-11-21T09:56:50;21.80;53.60
46932;DHT22;32670;51.464;11.964;2023-11-21T09:59:16;21.80;53.60
46932;DHT22;32670;51.464;11.964;2023-11-21T10:01:42;21.80;53.60
46932;DHT22;32670;51.464;11.964;2023-11-21T10:04:09;21.80;53.60
46932;DHT22;32670;51.464;11.964;2023-11-21T10:06:40;21.80;53.60
46932;DHT22;32670;51.464;11.964;2023-11-21T10:09:12;21.80;53.60
46932;DHT22;32670;51.464;11.964;2023-11-21T10:11:40;21.80;53.60
46932;DHT22;32670;51.464;11.964;2023-11-21T10:14:08;21.80;53.60
46932;DHT22;32670;51.464;11.964;2023-11-21T10:16:36;21.80;53.60
46932;DHT22;32670;51.464;11.964;2023-11-21T10:19:03;21.80;53.60
46932;DHT22;32670;51.464;11.964;2023-11-21T10:21:29;21.80;53.60
46932;DHT22;32670;51.464;11.964;2023-11-21T10:23:55;21.80;53.60
46932;DHT22;32670;51.464;11.964;2023-11-21T10:26:22;21.80;53.60
46932;DHT22;32670;51.464;11.964;2023-11-21T10:28:56;21.80;53.60
46932;DHT22;32670;51.464;11.964;2023-11-21T10:31:23;21.80;53.60
46932;DHT22;32670;51.464;11.964;2023-11-21T10:33:50;21.90;53.70
46932;DHT22;32670;51.464;11.964;2023-11-21T10:36:28;21.80;53.60
46932;DHT22;32670;51.464;11.964;2023-11-21T10:38:54;21.90;53.60
46932;DHT22;32670;51.464;11.964;2023-11-21T10:41:20;21.90;53.70
46932;DHT22;32670;51.464;11.964;2023-11-21T10:43:46;21.90;53.60
46932;DHT22;32670;51.464;11.964;2023-11-21T10:46:13;21.90;53.60
46932;DHT22;32670;51.464;11.964;2023-11-21T10:48:44;21.90;53.60
46932;DHT22;32670;51.464;11.964;2023-11-21T10:51:09;21.90;53.60
46932;DHT22;32670;51.464;11.964;2023-11-21T10:53:39;21.90;53.60
46932;DHT22;32670;51.464;11.964;2023-11-21T10:56:06;21.90;53.70
46932;DHT22;32670;51.464;11.964;2023-11-21T10:58:34;21.80;53.50
46932;DHT22;32670;51.464;11.964;2023-11-21T11:01:02;21.90;53.60
46932;DHT22;32670;51.464;11.964;2023-11-21T11:03:30;21.90;53.60
46932;DHT22;32670;51.464;11.964;2023-11-21T11:05:59;21.90;53.50
46932;DHT22;32670;51.464;11.964;2023-11-21T11:08:25;21.80;53.60
46932;DHT22;32670;51.464;11.964;2023-11-21T11:10:52;21.90;53.60
46932;DHT22;32670;51.464;11.964;2023-11-21T11:13:18;21.90;53.60
46932;DHT22;32670;51.464;11.964;2023-11-21T11:15:47;21.90;53.60
46932;DHT22;32670;51.464;11.964;2023-11-21T11:18:14;21.90;53.50
46932;DHT22;32670;51.464;11.964;2023-11-21T11:20:42;21.90;53.60
46932;DHT22;32670;51.464;11.964;2023-11-21T11:23:36;21.90;53.60
46932;DHT22;32670;51.464;11.964;2023-11-21T11:29:15;21.90;54.30
46932;DHT22;32670;51.464;11.964;2023-11-21T11:32:09;21.90;54.30
46932;DHT22;32670;51.464;11.964;2023-11-21T11:34:52;21.90;54.00
46932;DHT22;32670;51.464;11.964;2023-11-21T11:37:19;21.90;53.90
46932;DHT22;32670;51.464;11.964;2023-11-21T11:39:45;21.90;53.90
46932;DHT22;32670;51.464;11.964;2023-11-21T11:42:15;21.90;53.90
46932;DHT22;32670;51.464;11.964;2023-11-21T11:47:16;21.90;53.80
46932;DHT22;32670;51.464;11.964;2023-11-21T11:50:07;21.90;53.80
46932;DHT22;32670;51.464;11.964;2023-11-21T11:52:35;21.90;53.70
46932;DHT22;32670;51.464;11.964;2023-11-21T11:55:02;21.90;53.70
46932;DHT22;32670;51.464;11.964;2023-11-21T11:57:31;21.90;53.60
46932;DHT22;32670;51.464;11.964;2023-11-21T12:00:19;21.90;53.60
46932;DHT22;32670;51.464;11.964;2023-11-21T12:02:50;21.90;53.50
46932;DHT22;32670;51.464;11.964;2023-11-21T12:05:17;21.90;53.60
46932;DHT22;32670;51.464;11.964;2023-11-21T12:07:54;21.90;53.50
46932;DHT22;32670;51.464;11.964;2023-11-21T12:10:22;21.90;53.50
46932;DHT22;32670;51.464;11.964;2023-11-21T12:12:55;21.90;53.50
46932;DHT22;32670;51.464;11.964;2023-11-21T12:15:21;21.90;53.50
46932;DHT22;32670;51.464;11.964;2023-11-21T12:17:47;21.90;54.00
46932;DHT22;32670;51.464;11.964;2023-11-21T12:20:15;21.90;53.50
46932;DHT22;32670;51.464;11.964;2023-11-21T12:22:47;21.90;53.50
46932;DHT22;32670;51.464;11.964;2023-11-21T12:25:14;21.90;53.40
46932;DHT22;32670;51.464;11.964;2023-11-21T12:27:42;21.90;53.40
46932;DHT22;32670;51.464;11.964;2023-11-21T12:30:09;21.90;53.40
46932;DHT22;32670;51.464;11.964;2023-11-21T12:32:42;21.90;53.40
46932;DHT22;32670;51.464;11.964;2023-11-21T12:35:11;21.90;53.40
46932;DHT22;32670;51.464;11.964;2023-11-21T12:37:41;21.90;53.40
46932;DHT22;32670;51.464;11.964;2023-11-21T12:40:09;21.90;53.40
46932;DHT22;32670;51.464;11.964;2023-11-21T12:42:41;21.90;53.30
46932;DHT22;32670;51.464;11.964;2023-11-21T12:45:08;21.90;53.30
46932;DHT22;32670;51.464;11.964;2023-11-21T12:47:39;21.90;53.30
46932;DHT22;32670;51.464;11.964;2023-11-21T12:50:05;21.90;53.30
46932;DHT22;32670;51.464;11.964;2023-11-21T12:52:32;21.90;53.30
46932;DHT22;32670;51.464;11.964;2023-11-21T12:54:58;21.90;53.30
46932;DHT22;32670;51.464;11.964;2023-11-21T12:57:27;21.90;53.20
46932;DHT22;32670;51.464;11.964;2023-11-21T12:59:57;21.90;53.30
46932;DHT22;32670;51.464;11.964;2023-11-21T13:02:25;21.90;53.30
46932;DHT22;32670;51.464;11.964;2023-11-21T13:04:54;21.90;53.30
46932;DHT22;32670;51.464;11.964;2023-11-21T13:07:23;21.90;53.20
46932;DHT22;32670;51.464;11.964;2023-11-21T13:09:52;21.90;53.20
46932;DHT22;32670;51.464;11.964;2023-11-21T13:12:17;21.90;53.20
46932;DHT22;32670;51.464;11.964;2023-11-21T13:14:50;21.90;53.30
46932;DHT22;32670;51.464;11.964;2023-11-21T13:17:15;21.90;53.20
46932;DHT22;32670;51.464;11.964;2023-11-21T13:19:41;21.90;53.20
46932;DHT22;32670;51.464;11.964;2023-11-21T13:22:07;21.90;53.20
46932;DHT22;32670;51.464;11.964;2023-11-21T13:24:36;21.90;53.20
46932;DHT22;32670;51.464;11.964;2023-11-21T13:27:02;21.90;53.10
46932;DHT22;32670;51.464;11.964;2023-11-21T13:29:28;21.90;53.10
46932;DHT22;32670;51.464;11.964;2023-11-21T13:31:54;21.90;53.10
46932;DHT22;32670;51.464;11.964;2023-11-21T13:34:20;21.90;53.10
46932;DHT22;32670;51.464;11.964;2023-11-21T13:36:47;21.90;53.10
46932;DHT22;32670;51.464;11.964;2023-11-21T13:39:13;21.90;53.10
46932;DHT22;32670;51.464;11.964;2023-11-21T13:41:40;21.90;53.10
46932;DHT22;32670;51.464;11.964;2023-11-21T13:44:06;21.90;53.10
46932;DHT22;32670;51.464;11.964;2023-11-21T13:46:41;21.90;53.00
46932;DHT22;32670;51.464;11.964;2023-11-21T13:49:07;21.90;53.00
46932;DHT22;32670;51.464;11.964;2023-11-21T13:51:36;21.90;53.00
46932;DHT22;32670;51.464;11.964;2023-11-21T13:54:09;21.90;53.00
46932;DHT22;32670;51.464;11.964;2023-11-21T13:56:36;21.90;53.00
46932;DHT22;32670;51.464;11.964;2023-11-21T13:59:02;21.90;53.00
46932;DHT22;32670;51.464;11.964;2023-11-21T14:01:38;21.90;53.00
46932;DHT22;32670;51.464;11.964;2023-11-21T14:04:20;21.90;53.00
46932;DHT22;32670;51.464;11.964;2023-11-21T14:06:56;21.90;53.00
46932;DHT22;32670;51.464;11.964;2023-11-21T14:09:23;21.90;53.00
46932;DHT22;32670;51.464;11.964;2023-11-21T14:11:55;21.90;53.00
46932;DHT22;32670;51.464;11.964;2023-11-21T14:14:23;21.90;53.00
46932;DHT22;32670;51.464;11.964;2023-11-21T14:16:50;21.90;53.00
46932;DHT22;32670;51.464;11.964;2023-11-21T14:19:17;21.90;53.00
46932;DHT22;32670;51.464;11.964;2023-11-21T14:21:46;21.90;53.00
46932;DHT22;32670;51.464;11.964;2023-11-21T14:24:14;21.90;53.00
46932;DHT22;32670;51.464;11.964;2023-11-21T14:26:45;21.90;53.50
46932;DHT22;32670;51.464;11.964;2023-11-21T14:29:16;21.90;53.00
46932;DHT22;32670;51.464;11.964;2023-11-21T14:31:46;21.90;52.90
46932;DHT22;32670;51.464;11.964;2023-11-21T14:34:11;21.90;52.90
46932;DHT22;32670;51.464;11.964;2023-11-21T14:36:38;21.90;52.90
46932;DHT22;32670;51.464;11.964;2023-11-21T14:39:05;21.90;52.90
46932;DHT22;32670;51.464;11.964;2023-11-21T14:41:35;21.90;53.00
46932;DHT22;32670;51.464;11.964;2023-11-21T14:44:02;21.90;52.90
46932;DHT22;32670;51.464;11.964;2023-11-21T14:46:29;21.90;53.10
46932;DHT22;32670;51.464;11.964;2023-11-21T14:48:55;21.90;53.00
46932;DHT22;32670;51.464;11.964;2023-11-21T14:51:26;21.90;52.90
46932;DHT22;32670;51.464;11.964;2023-11-21T14:53:58;21.90;52.90
46932;DHT22;32670;51.464;11.964;2023-11-21T14:56:32;21.90;52.90
46932;DHT22;32670;51.464;11.964;2023-11-21T14:59:00;21.90;53.00
46932;DHT22;32670;51.464;11.964;2023-11-21T15:01:32;21.90;53.40
46932;DHT22;32670;51.464;11.964;2023-11-21T15:04:20;21.90;52.90
46932;DHT22;32670;51.464;11.964;2023-11-21T15:07:03;21.90;52.90
46932;DHT22;32670;51.464;11.964;2023-11-21T15:09:29;21.90;52.90
46932;DHT22;32670;51.464;11.964;2023-11-21T15:11:58;21.90;52.90
46932;DHT22;32670;51.464;11.964;2023-11-21T15:14:34;21.90;53.00
46932;DHT22;32670;51.464;11.964;2023-11-21T15:17:02;22.00;53.50
46932;DHT22;32670;51.464;11.964;2023-11-21T15:19:28;22.00;53.30
46932;DHT22;32670;51.464;11.964;2023-11-21T15:21:56;21.90;53.00